Time;durP1;ratioP1;P1;durP2;ratioP2;P2;SDS_P1;SDS_P2;PMS_P1;PMS_P2;Temp;Humidity;BMP_temperature;BMP_pressure;BME280_temperature;BME280_humidity;BME280_pressure;Samples;Min_cycle;Max_cycle;Signal;HPM_P1;HPM_P2
2021/06/28 00:01:52;;;;;;;;;;;;;;;23.79;52.75;97272.41;5068016;28;19913;-67
2021/06/28 00:04:17;;;;;;;;;;;;;;;23.82;52.00;97260.16;5035617;28;20396;-66
2021/06/28 00:06:42;;;;;;;;;;;;;;;23.74;51.89;97258.47;5035569;28;19913;-66
2021/06/28 00:09:07;;;;;;;;;;;;;;;23.93;51.12;97256.84;5035649;28;20266;-67
2021/06/28 00:11:33;;;;;;;;;;;;;;;24.11;51.08;97260.84;5035826;28;19972;-67
2021/06/28 00:13:58;;;;;;;;;;;;;;;24.14;50.99;97263.16;5067471;28;20019;-67
2021/06/28 00:16:24;;;;;;;;;;;;;;;24.20;50.23;97265.06;5035776;28;20354;-66
2021/06/28 00:18:49;;;;;;;;;;;;;;;24.16;49.82;97259.16;5067241;28;19924;-67
2021/06/28 00:21:15;;;;;;;;;;;;;;;24.20;49.47;97267.81;5033836;28;20399;-66
2021/06/28 00:23:40;;;;;;;;;;;;;;;24.27;49.19;97260.41;5035595;28;19913;-67
2021/06/28 00:26:05;;;;;;;;;;;;;;;24.32;49.02;97265.25;5035392;28;20345;-67
2021/06/28 00:28:31;;;;;;;;;;;;;;;24.36;49.01;97261.03;5035157;28;19913;-67
2021/06/28 00:30:56;;;;;;;;;;;;;;;24.43;48.72;97261.03;5067559;28;19944;-67
2021/06/28 00:33:21;;;;;;;;;;;;;;;24.42;48.68;97260.16;5035307;28;19913;-69
2021/06/28 00:35:47;;;;;;;;;;;;;;;24.47;48.26;97270.53;5067446;28;19917;-68
2021/06/28 00:38:13;;;;;;;;;;;;;;;24.46;48.21;97255.94;5034862;28;20292;-65
2021/06/28 00:40:39;;;;;;;;;;;;;;;24.47;48.41;97254.06;5035260;28;19967;-67
2021/06/28 00:43:04;;;;;;;;;;;;;;;24.44;48.40;97263.56;5035094;28;20320;-70
2021/06/28 00:45:30;;;;;;;;;;;;;;;24.39;48.35;97266.09;5034978;28;19919;-70
2021/06/28 00:47:59;;;;;;;;;;;;;;;24.39;48.39;97260.59;5034833;28;19913;-70
2021/06/28 00:50:25;;;;;;;;;;;;;;;24.38;48.65;97259.75;5066644;28;19913;-70
2021/06/28 00:52:52;;;;;;;;;;;;;;;24.43;48.37;97250.88;5035010;28;19913;-69
2021/06/28 00:55:18;;;;;;;;;;;;;;;24.51;48.06;97256.13;5034644;28;19917;-70
2021/06/28 00:57:43;;;;;;;;;;;;;;;24.58;47.88;97254.22;5034957;28;19913;-71
2021/06/28 01:00:10;;;;;;;;;;;;;;;24.66;47.88;97244.91;5066514;28;19913;-67
2021/06/28 01:02:36;;;;;;;;;;;;;;;24.77;47.93;97250.81;5035118;28;19913;-67
2021/06/28 01:05:03;;;;;;;;;;;;;;;24.86;47.91;97252.28;5034652;28;19935;-67
2021/06/28 01:07:29;;;;;;;;;;;;;;;24.92;47.12;97247.81;5034641;28;19916;-66
2021/06/28 01:09:54;;;;;;;;;;;;;;;24.89;46.89;97258.19;5034119;28;19960;-66
2021/06/28 01:12:20;;;;;;;;;;;;;;;24.55;48.03;97254.66;5034543;28;20003;-67
2021/06/28 01:14:45;;;;;;;;;;;;;;;24.27;49.45;97259.56;5066585;28;20372;-68
2021/06/28 01:17:12;;;;;;;;;;;;;;;24.10;50.21;97260.00;5066280;28;19913;-67
2021/06/28 01:19:38;;;;;;;;;;;;;;;23.80;51.88;97260.38;5034478;28;20288;-67
2021/06/28 01:22:03;;;;;;;;;;;;;;;23.74;51.90;97251.09;5066072;28;20281;-67
2021/06/28 01:24:28;;;;;;;;;;;;;;;23.66;52.21;97261.41;5066226;28;19913;-67
2021/06/28 01:26:54;;;;;;;;;;;;;;;23.51;52.67;97262.44;5066438;28;19913;-67
2021/06/28 01:29:19;;;;;;;;;;;;;;;23.46;52.65;97261.38;5034053;28;20384;-67
2021/06/28 01:31:44;;;;;;;;;;;;;;;23.50;52.26;97257.16;5034405;28;19928;-66
2021/06/28 01:34:10;;;;;;;;;;;;;;;23.57;52.52;97260.75;5066106;28;19920;-66
2021/06/28 01:36:35;;;;;;;;;;;;;;;23.54;52.59;97264.78;5066054;28;19909;-65
2021/06/28 01:39:01;;;;;;;;;;;;;;;23.58;52.26;97259.72;5066159;28;19912;-66
2021/06/28 01:41:26;;;;;;;;;;;;;;;23.53;52.38;97254.84;5033833;28;19948;-66
2021/06/28 01:43:54;;;;;;;;;;;;;;;23.46;51.92;97262.22;5033889;28;19909;-66
2021/06/28 01:46:19;;;;;;;;;;;;;;;23.37;52.54;97258.84;5033641;28;20007;-66
2021/06/28 01:48:45;;;;;;;;;;;;;;;23.42;52.60;97262.84;5033952;28;19913;-65
2021/06/28 01:51:11;;;;;;;;;;;;;;;23.43;52.32;97261.81;5034062;28;19951;-66
2021/06/28 01:53:36;;;;;;;;;;;;;;;23.26;53.58;97253.09;5033673;28;20288;-66
2021/06/28 01:56:05;;;;;;;;;;;;;;;23.38;51.46;97262.41;5065784;28;19913;-66
2021/06/28 01:58:30;;;;;;;;;;;;;;;23.58;50.99;97259.72;5033702;28;19913;-66
2021/06/28 02:00:55;;;;;;;;;;;;;;;23.55;52.03;97260.13;5034008;28;20345;-66
2021/06/28 02:03:22;;;;;;;;;;;;;;;23.37;52.73;97260.72;5033599;28;19935;-66
2021/06/28 02:05:48;;;;;;;;;;;;;;;23.38;52.31;97262.41;5065999;28;20011;-66
2021/06/28 02:08:14;;;;;;;;;;;;;;;23.42;51.77;97255.47;5033852;28;19916;-66
2021/06/28 02:10:41;;;;;;;;;;;;;;;23.53;51.87;97256.75;5065557;28;20349;-66
2021/06/28 02:13:06;;;;;;;;;;;;;;;23.44;51.93;97249.75;5033855;28;20376;-65
2021/06/28 02:15:31;;;;;;;;;;;;;;;23.52;51.53;97250.41;5033450;28;19913;-66
2021/06/28 02:17:57;;;;;;;;;;;;;;;23.62;51.13;97255.50;5034098;28;20299;-66
2021/06/28 02:20:23;;;;;;;;;;;;;;;23.54;50.98;97248.31;5048710;28;20014;-66
2021/06/28 02:22:48;;;;;;;;;;;;;;;23.68;50.44;97253.84;5069370;28;19917;-66
2021/06/28 02:25:14;;;;;;;;;;;;;;;23.54;50.47;97256.56;5037463;28;19920;-66
2021/06/28 02:27:40;;;;;;;;;;;;;;;23.72;50.06;97253.19;5037399;28;19913;-64
2021/06/28 02:30:06;;;;;;;;;;;;;;;23.69;50.08;97266.47;5037755;28;19967;-66
2021/06/28 02:32:31;;;;;;;;;;;;;;;23.72;50.46;97275.16;5037555;28;20008;-66
2021/06/28 02:34:57;;;;;;;;;;;;;;;23.69;49.55;97261.84;5069739;28;20357;-65
2021/06/28 02:37:22;;;;;;;;;;;;;;;23.80;49.24;97260.38;5037279;28;20374;-65
2021/06/28 02:39:47;;;;;;;;;;;;;;;23.87;49.26;97263.97;5037407;28;19917;-65
2021/06/28 02:42:13;;;;;;;;;;;;;;;23.94;48.67;97263.16;5037779;28;20277;-66
2021/06/28 02:44:38;;;;;;;;;;;;;;;23.82;49.16;97255.50;5036992;28;20015;-65
2021/06/28 02:47:03;;;;;;;;;;;;;;;23.80;49.23;97262.25;5069133;28;20293;-65
2021/06/28 02:49:28;;;;;;;;;;;;;;;23.79;49.52;97268.84;5037245;28;19920;-65
2021/06/28 02:51:54;;;;;;;;;;;;;;;23.56;50.19;97268.16;5037360;28;19975;-65
2021/06/28 02:54:19;;;;;;;;;;;;;;;23.59;49.89;97258.66;5037536;28;19913;-65
2021/06/28 02:56:44;;;;;;;;;;;;;;;23.55;49.91;97260.97;5036867;28;19927;-65
2021/06/28 02:59:12;;;;;;;;;;;;;;;23.49;50.07;97258.22;5037086;28;19920;-66
2021/06/28 03:01:37;;;;;;;;;;;;;;;23.45;50.33;97255.06;5035566;28;20293;-66
2021/06/28 03:04:03;;;;;;;;;;;;;;;23.46;50.39;97259.47;5037035;28;19920;-65
2021/06/28 03:06:28;;;;;;;;;;;;;;;23.43;50.50;97259.91;5036894;28;19913;-65
2021/06/28 03:08:53;;;;;;;;;;;;;;;23.34;51.23;97259.25;5068910;28;20368;-65
2021/06/28 03:11:20;;;;;;;;;;;;;;;23.28;51.08;97259.25;5036681;28;19959;-64
2021/06/28 03:13:45;;;;;;;;;;;;;;;23.25;51.31;97257.75;5036754;28;20282;-62
2021/06/28 03:16:10;;;;;;;;;;;;;;;23.30;50.99;97257.13;5051875;28;20415;-65
2021/06/28 03:18:36;;;;;;;;;;;;;;;23.43;50.33;97268.13;5068649;28;19913;-65
2021/06/28 03:21:02;;;;;;;;;;;;;;;23.46;50.17;97266.88;5068382;28;19966;-65
2021/06/28 03:23:28;;;;;;;;;;;;;;;23.42;49.84;97263.69;5036275;28;19917;-64
2021/06/28 03:25:53;;;;;;;;;;;;;;;23.37;50.10;97258.84;5036228;28;20365;-65
2021/06/28 03:28:19;;;;;;;;;;;;;;;23.14;50.80;97267.41;5036309;28;19919;-66
2021/06/28 03:30:44;;;;;;;;;;;;;;;23.10;51.18;97266.09;5068339;28;19909;-66
2021/06/28 03:33:09;;;;;;;;;;;;;;;23.05;51.63;97254.91;5036036;28;19913;-66
2021/06/28 03:35:35;;;;;;;;;;;;;;;22.94;52.12;97259.06;5068437;28;19909;-66
2021/06/28 03:38:00;;;;;;;;;;;;;;;22.86;51.96;97262.84;5036448;28;20324;-66
2021/06/28 03:40:25;;;;;;;;;;;;;;;22.95;51.24;97258.03;5068563;28;20361;-67
2021/06/28 03:42:51;;;;;;;;;;;;;;;22.76;53.02;97256.88;5068384;28;20345;-66
2021/06/28 03:45:16;;;;;;;;;;;;;;;22.59;52.99;97261.00;5036343;28;20340;-67
2021/06/28 03:47:42;;;;;;;;;;;;;;;22.62;53.48;97257.84;5068094;28;19936;-67
2021/06/28 03:50:08;;;;;;;;;;;;;;;22.60;53.35;97269.03;5068306;28;20012;-67
2021/06/28 03:52:33;;;;;;;;;;;;;;;22.51;53.79;97264.75;5067941;28;19967;-66
2021/06/28 03:54:59;;;;;;;;;;;;;;;22.54;53.98;97264.34;5036188;28;20326;-66
2021/06/28 03:57:24;;;;;;;;;;;;;;;22.55;54.09;97263.31;5067941;28;19913;-66
2021/06/28 03:59:50;;;;;;;;;;;;;;;22.45;54.40;97265.56;5035988;28;20358;-67
2021/06/28 04:02:15;;;;;;;;;;;;;;;22.49;54.28;97262.22;5035770;28;19916;-68
2021/06/28 04:04:47;;;;;;;;;;;;;;;22.55;54.29;97266.03;5027431;28;20369;-66
2021/06/28 04:07:13;;;;;;;;;;;;;;;22.43;54.28;97271.22;5018179;28;19913;-66
2021/06/28 04:09:38;;;;;;;;;;;;;;;22.42;54.21;97269.53;5034230;28;19913;-66
2021/06/28 04:12:03;;;;;;;;;;;;;;;22.41;54.76;97267.88;5034033;28;19920;-68
2021/06/28 04:14:29;;;;;;;;;;;;;;;22.43;54.70;97265.75;5033997;28;19927;-66
2021/06/28 04:16:55;;;;;;;;;;;;;;;22.35;56.05;97266.75;5034473;28;19998;-67
2021/06/28 04:19:20;;;;;;;;;;;;;;;22.28;55.22;97275.97;5034551;28;19980;-68
2021/06/28 04:21:45;;;;;;;;;;;;;;;22.33;55.05;97262.50;5034113;28;19951;-67
2021/06/28 04:24:11;;;;;;;;;;;;;;;22.38;55.08;97270.97;5033285;28;19913;-67
2021/06/28 04:26:36;;;;;;;;;;;;;;;22.38;54.66;97271.84;5033015;28;20520;-67
2021/06/28 04:29:02;;;;;;;;;;;;;;;22.58;53.99;97276.59;5034163;28;20027;-67
2021/06/28 04:31:27;;;;;;;;;;;;;;;22.57;54.76;97275.75;5052148;28;20381;-66
2021/06/28 04:33:52;;;;;;;;;;;;;;;22.65;53.76;97269.28;5046798;28;19920;-66
2021/06/28 04:36:17;;;;;;;;;;;;;;;22.59;54.78;97269.22;5047048;28;20279;-67
2021/06/28 04:38:43;;;;;;;;;;;;;;;22.49;55.67;97266.84;5014955;28;19909;-67
2021/06/28 04:41:08;;;;;;;;;;;;;;;22.44;56.62;97275.69;5014733;28;20281;-66
2021/06/28 04:43:33;;;;;;;;;;;;;;;22.46;55.55;97273.59;5019847;28;19912;-67
2021/06/28 04:45:58;;;;;;;;;;;;;;;22.41;56.79;97273.34;5031011;28;20288;-66
2021/06/28 04:48:24;;;;;;;;;;;;;;;22.45;56.25;97276.50;5034355;28;19913;-66
2021/06/28 04:50:49;;;;;;;;;;;;;;;22.45;56.72;97279.25;5032494;28;19931;-69
2021/06/28 04:53:15;;;;;;;;;;;;;;;22.46;55.89;97284.56;5034207;28;20377;-66
2021/06/28 04:55:40;;;;;;;;;;;;;;;22.62;55.30;97283.41;5034030;28;20361;-67
2021/06/28 04:58:05;;;;;;;;;;;;;;;22.67;55.37;97286.34;5034185;28;20257;-66
2021/06/28 05:00:31;;;;;;;;;;;;;;;22.69;55.65;97288.91;5033919;28;19912;-67
2021/06/28 05:02:56;;;;;;;;;;;;;;;22.79;54.05;97283.88;5033618;28;19913;-66
2021/06/28 05:05:22;;;;;;;;;;;;;;;22.80;54.83;97280.09;5033424;28;20007;-66
2021/06/28 05:07:47;;;;;;;;;;;;;;;22.84;54.95;97288.78;5033504;28;19956;-66
2021/06/28 05:10:13;;;;;;;;;;;;;;;22.88;53.51;97287.31;5032579;28;19920;-67
2021/06/28 05:12:38;;;;;;;;;;;;;;;23.03;53.36;97287.16;5029596;28;19927;-67
2021/06/28 05:15:04;;;;;;;;;;;;;;;23.05;53.46;97285.91;5031789;28;19920;-68
2021/06/28 05:17:29;;;;;;;;;;;;;;;23.14;53.71;97289.34;5032338;28;19943;-68
2021/06/28 05:19:55;;;;;;;;;;;;;;;23.12;54.64;97290.59;5033288;28;19921;-68
2021/06/28 05:22:20;;;;;;;;;;;;;;;23.03;54.67;97292.66;5032852;28;19956;-67
2021/06/28 05:24:45;;;;;;;;;;;;;;;23.10;54.45;97289.94;5032110;28;19948;-68
2021/06/28 05:27:11;;;;;;;;;;;;;;;23.28;52.08;97286.69;5032650;28;19952;-68
2021/06/28 05:29:36;;;;;;;;;;;;;;;23.41;52.12;97289.47;5031649;28;19917;-67
2021/06/28 05:32:01;;;;;;;;;;;;;;;23.29;54.38;97288.34;5033051;28;19912;-68
2021/06/28 05:34:26;;;;;;;;;;;;;;;23.39;54.04;97289.66;5031958;28;19913;-68
2021/06/28 05:36:52;;;;;;;;;;;;;;;23.44;54.79;97296.41;5032850;28;19917;-67
2021/06/28 05:39:17;;;;;;;;;;;;;;;23.46;55.26;97289.66;5033315;28;20318;-68
2021/06/28 05:41:42;;;;;;;;;;;;;;;23.47;55.10;97294.09;5033255;28;19917;-67
2021/06/28 05:44:08;;;;;;;;;;;;;;;23.52;55.51;97297.09;5033139;28;20288;-68
2021/06/28 05:46:33;;;;;;;;;;;;;;;23.61;55.01;97291.38;5031643;28;20003;-68
2021/06/28 05:48:58;;;;;;;;;;;;;;;23.76;54.50;97296.69;5031586;28;19913;-68
2021/06/28 05:51:24;;;;;;;;;;;;;;;23.78;54.99;97292.69;5033117;28;20066;-67
2021/06/28 05:53:49;;;;;;;;;;;;;;;23.59;57.17;97304.50;5032127;28;19917;-68
2021/06/28 05:56:14;;;;;;;;;;;;;;;23.73;56.82;97296.06;5031208;28;20484;-68
2021/06/28 05:58:40;;;;;;;;;;;;;;;23.76;56.51;97293.94;5032476;28;20331;-67
2021/06/28 06:01:05;;;;;;;;;;;;;;;23.82;56.69;97296.69;5031136;28;19917;-68
2021/06/28 06:03:31;;;;;;;;;;;;;;;23.93;56.34;97288.94;5032864;28;19917;-67
2021/06/28 06:05:56;;;;;;;;;;;;;;;24.07;55.06;97296.97;5033111;28;19913;-67
2021/06/28 06:08:24;;;;;;;;;;;;;;;24.13;54.35;97292.56;5032577;28;20443;-67
2021/06/28 06:10:53;;;;;;;;;;;;;;;24.23;54.65;97298.44;5031525;28;20015;-68
2021/06/28 06:13:19;;;;;;;;;;;;;;;24.33;54.47;97297.19;5032896;28;19956;-68
2021/06/28 06:15:44;;;;;;;;;;;;;;;24.45;54.04;97302.88;5031647;28;19956;-68
2021/06/28 06:18:10;;;;;;;;;;;;;;;24.49;54.45;97302.25;5030293;28;19967;-68
2021/06/28 06:20:35;;;;;;;;;;;;;;;24.40;56.85;97309.03;5030276;28;19917;-68
2021/06/28 06:23:00;;;;;;;;;;;;;;;24.46;57.35;97307.31;5032075;28;20335;-68
2021/06/28 06:25:25;;;;;;;;;;;;;;;24.56;57.47;97305.00;5032734;28;19956;-66
2021/06/28 06:27:51;;;;;;;;;;;;;;;24.66;57.58;97312.81;5032134;28;19917;-68
2021/06/28 06:30:16;;;;;;;;;;;;;;;24.53;59.48;97314.50;5030508;28;19912;-68
2021/06/28 06:32:41;;;;;;;;;;;;;;;24.65;58.25;97316.63;5031179;28;20003;-69
2021/06/28 06:35:07;;;;;;;;;;;;;;;24.73;58.70;97306.25;5039376;28;20015;-68
2021/06/28 06:37:32;;;;;;;;;;;;;;;24.71;58.47;97315.78;5037265;28;20392;-68
2021/06/28 06:39:58;;;;;;;;;;;;;;;24.79;57.40;97315.56;5033244;28;20660;-67
2021/06/28 06:42:23;;;;;;;;;;;;;;;24.80;57.60;97314.50;5038290;28;19999;-68
2021/06/28 06:44:48;;;;;;;;;;;;;;;24.90;57.04;97317.63;5034571;28;20013;-68
2021/06/28 06:47:14;;;;;;;;;;;;;;;24.89;57.13;97317.84;5032256;28;19921;-69
2021/06/28 06:49:39;;;;;;;;;;;;;;;24.95;57.44;97316.13;5038742;28;19924;-68
2021/06/28 06:52:04;;;;;;;;;;;;;;;24.97;57.15;97319.53;5039888;28;19920;-68
2021/06/28 06:54:30;;;;;;;;;;;;;;;25.11;56.19;97320.31;5039658;28;19935;-67
2021/06/28 06:56:55;;;;;;;;;;;;;;;25.24;55.85;97321.13;5023757;28;19920;-67
2021/06/28 06:59:20;;;;;;;;;;;;;;;25.33;53.59;97316.19;5039045;28;20007;-67
2021/06/28 07:01:46;;;;;;;;;;;;;;;25.28;53.16;97320.69;5037169;28;19916;-67
2021/06/28 07:04:14;;;;;;;;;;;;;;;25.43;53.01;97309.41;5030074;28;19924;-67
2021/06/28 07:06:39;;;;;;;;;;;;;;;25.45;51.44;97315.56;5030796;28;19917;-68
2021/06/28 07:09:04;;;;;;;;;;;;;;;25.52;52.11;97319.97;5031944;28;20009;-68
2021/06/28 07:11:30;;;;;;;;;;;;;;;25.62;50.94;97316.72;5033697;28;19967;-68
2021/06/28 07:13:55;;;;;;;;;;;;;;;25.77;47.98;97312.84;5034535;28;20003;-67
2021/06/28 07:16:25;;;;;;;;;;;;;;;25.87;46.68;97315.97;5035356;28;20487;-68
2021/06/28 07:18:50;;;;;;;;;;;;;;;25.92;47.51;97326.31;5033686;28;20285;-67
2021/06/28 07:21:16;;;;;;;;;;;;;;;25.98;45.87;97318.00;5034447;28;19932;-69
2021/06/28 07:23:41;;;;;;;;;;;;;;;26.00;46.03;97312.25;5059298;28;19917;-68
2021/06/28 07:26:06;;;;;;;;;;;;;;;26.01;44.58;97316.69;5033155;28;19917;-68
2021/06/28 07:28:33;;;;;;;;;;;;;;;26.08;43.80;97320.28;5031705;28;19940;-69
2021/06/28 07:30:58;;;;;;;;;;;;;;;26.17;42.87;97318.09;5030826;28;19947;-68
2021/06/28 07:33:27;;;;;;;;;;;;;;;26.20;40.52;97325.91;5032671;28;19917;-68
2021/06/28 07:35:53;;;;;;;;;;;;;;;26.29;44.01;97318.22;5062178;28;19920;-68
2021/06/28 07:38:18;;;;;;;;;;;;;;;26.37;43.06;97323.44;5033337;28;19921;-69
2021/06/28 07:40:43;;;;;;;;;;;;;;;26.48;42.92;97325.44;5030970;28;20302;-68
2021/06/28 07:43:09;;;;;;;;;;;;;;;26.56;41.12;97327.09;5034839;28;19921;-68
2021/06/28 07:45:34;;;;;;;;;;;;;;;26.59;41.46;97328.56;5034458;28;19917;-69
2021/06/28 07:48:00;;;;;;;;;;;;;;;26.67;40.15;97328.25;5034340;28;19999;-68
2021/06/28 07:50:25;;;;;;;;;;;;;;;26.66;41.49;97323.84;5034742;28;20005;-68
2021/06/28 07:52:50;;;;;;;;;;;;;;;26.65;41.94;97322.97;5033755;28;19920;-68
2021/06/28 07:55:16;;;;;;;;;;;;;;;26.69;42.30;97328.88;5032656;28;19917;-68
2021/06/28 07:57:42;;;;;;;;;;;;;;;26.82;41.70;97325.19;5033858;28;19920;-67
2021/06/28 08:00:08;;;;;;;;;;;;;;;26.81;42.62;97329.00;5026953;28;20365;-67
2021/06/28 08:02:33;;;;;;;;;;;;;;;26.83;40.67;97326.84;5033034;28;20391;-68
2021/06/28 08:05:00;;;;;;;;;;;;;;;26.87;41.46;97330.84;5042511;28;20011;-68
2021/06/28 08:07:28;;;;;;;;;;;;;;;26.94;40.29;97320.59;5034431;28;20007;-67
2021/06/28 08:09:53;;;;;;;;;;;;;;;27.08;40.85;97331.50;5041246;28;20361;-68
2021/06/28 08:12:18;;;;;;;;;;;;;;;27.01;41.22;97332.41;5035387;28;20340;-68
2021/06/28 08:14:44;;;;;;;;;;;;;;;27.08;41.07;97337.84;5041013;28;20572;-68
2021/06/28 08:17:10;;;;;;;;;;;;;;;27.13;40.18;97326.94;5032027;28;19924;-68
2021/06/28 08:19:35;;;;;;;;;;;;;;;27.02;40.05;97336.84;5032842;28;19959;-68
2021/06/28 08:22:00;;;;;;;;;;;;;;;27.13;39.27;97332.47;5041326;28;19942;-68
2021/06/28 08:24:26;;;;;;;;;;;;;;;27.22;39.57;97333.84;5042834;28;19913;-67
2021/06/28 08:26:52;;;;;;;;;;;;;;;27.34;39.43;97333.94;5023599;28;19920;-68
2021/06/28 08:29:17;;;;;;;;;;;;;;;27.38;38.99;97345.41;5050292;28;19913;-69
2021/06/28 08:31:43;;;;;;;;;;;;;;;27.44;38.88;97335.34;5036350;28;19916;-68
2021/06/28 08:34:08;;;;;;;;;;;;;;;27.51;38.80;97334.19;5047449;28;20361;-69
2021/06/28 08:36:33;;;;;;;;;;;;;;;27.58;39.02;97333.22;5031791;28;19921;-67
2021/06/28 08:38:58;;;;;;;;;;;;;;;27.54;38.45;97333.69;5036668;28;19943;-68
2021/06/28 08:41:25;;;;;;;;;;;;;;;27.64;39.13;97348.88;5050397;28;19999;-67
2021/06/28 08:43:50;;;;;;;;;;;;;;;27.70;39.54;97340.50;5036653;28;19952;-69
2021/06/28 08:46:16;;;;;;;;;;;;;;;27.73;39.66;97348.31;5053135;28;20038;-68
2021/06/28 08:48:42;;;;;;;;;;;;;;;27.59;38.31;97337.69;5041993;28;19917;-69
2021/06/28 08:51:08;;;;;;;;;;;;;;;27.72;39.01;97340.25;5047189;28;19919;-69
2021/06/28 08:53:33;;;;;;;;;;;;;;;27.82;39.06;97340.56;5035666;28;20336;-67
2021/06/28 08:55:58;;;;;;;;;;;;;;;27.84;39.16;97332.84;5047216;28;19939;-67
2021/06/28 08:58:26;;;;;;;;;;;;;;;27.90;39.04;97342.97;5034681;28;19955;-66
2021/06/28 09:00:51;;;;;;;;;;;;;;;27.93;38.07;97338.91;5031663;28;19920;-68
2021/06/28 09:03:17;;;;;;;;;;;;;;;27.99;37.72;97337.94;5035177;28;19958;-68
2021/06/28 09:06:14;;;;;;;;;;;;;;;28.01;38.11;97344.13;5034323;28;19913;-68
2021/06/28 09:08:56;;;;;;;;;;;;;;;28.08;37.86;97338.50;5041324;28;19924;-67
2021/06/28 09:11:21;;;;;;;;;;;;;;;28.12;38.42;97344.41;5036618;28;19920;-68
2021/06/28 09:13:47;;;;;;;;;;;;;;;28.12;38.81;97341.66;5048518;28;19925;-68
2021/06/28 09:16:14;;;;;;;;;;;;;;;28.05;38.00;97337.06;5040436;28;19958;-69
2021/06/28 09:18:48;;;;;;;;;;;;;;;27.84;37.65;97352.19;5042091;28;20015;-72
2021/06/28 09:21:14;;;;;;;;;;;;;;;28.01;38.25;97338.59;5033538;28;19955;-72
2021/06/28 09:23:41;;;;;;;;;;;;;;;28.15;37.83;97341.16;5035984;28;20373;-71
2021/06/28 09:26:14;;;;;;;;;;;;;;;28.13;38.12;97346.94;5045601;28;19920;-71
2021/06/28 09:28:42;;;;;;;;;;;;;;;28.21;37.47;97346.59;5041473;28;19948;-71
2021/06/28 09:31:07;;;;;;;;;;;;;;;28.27;36.94;97341.19;5035016;28;20351;-71
2021/06/28 09:33:33;;;;;;;;;;;;;;;28.26;36.34;97343.13;5046134;28;19917;-71
2021/06/28 09:35:59;;;;;;;;;;;;;;;28.23;37.50;97340.81;5036051;28;20019;-72
2021/06/28 09:38:32;;;;;;;;;;;;;;;28.32;37.48;97339.38;5042123;28;19913;-70
2021/06/28 09:41:18;;;;;;;;;;;;;;;28.35;37.06;97336.16;5043453;28;20540;-72
2021/06/28 09:43:43;;;;;;;;;;;;;;;28.47;36.86;97338.09;5024591;28;20482;-71
2021/06/28 09:46:15;;;;;;;;;;;;;;;28.34;36.28;97339.16;5044591;28;20403;-71
2021/06/28 09:48:40;;;;;;;;;;;;;;;28.34;35.99;97334.47;5031023;28;20281;-71
2021/06/28 09:51:20;;;;;;;;;;;;;;;28.38;36.37;97334.81;5035852;28;20408;-71
2021/06/28 09:53:53;;;;;;;;;;;;;;;28.50;36.95;97327.41;5035171;28;20292;-72
2021/06/28 09:56:34;;;;;;;;;;;;;;;28.63;37.04;97325.47;5035266;28;19927;-71
2021/06/28 09:59:17;;;;;;;;;;;;;;;28.65;36.79;97326.09;5023153;28;20286;-71
2021/06/28 10:01:43;;;;;;;;;;;;;;;28.63;37.09;97326.31;5024070;28;20023;-70
2021/06/28 10:04:08;;;;;;;;;;;;;;;28.73;36.38;97320.22;5035034;28;20375;-70
2021/06/28 10:06:35;;;;;;;;;;;;;;;28.57;36.86;97310.69;5030850;28;19913;-72
2021/06/28 10:09:05;;;;;;;;;;;;;;;28.42;37.70;97308.38;5030626;28;19917;-68
2021/06/28 10:11:31;;;;;;;;;;;;;;;28.64;37.21;97310.56;5025590;28;19913;-71
2021/06/28 10:14:02;;;;;;;;;;;;;;;28.81;37.52;97299.63;5032718;28;19924;-71
2021/06/28 10:16:31;;;;;;;;;;;;;;;28.77;37.37;97302.06;5030347;28;20409;-72
2021/06/28 10:18:57;;;;;;;;;;;;;;;28.76;37.82;97300.38;5028413;28;20356;-71
2021/06/28 10:21:23;;;;;;;;;;;;;;;28.83;39.04;97297.47;5029741;28;19967;-71
2021/06/28 10:23:48;;;;;;;;;;;;;;;28.87;37.21;97301.44;5044614;28;19920;-71
2021/06/28 10:26:13;;;;;;;;;;;;;;;28.94;36.53;97296.59;5021874;28;20399;-71
2021/06/28 10:28:39;;;;;;;;;;;;;;;29.04;36.71;97298.78;5050859;28;19913;-72
2021/06/28 10:31:05;;;;;;;;;;;;;;;28.96;35.68;97291.69;5032334;28;20300;-71
2021/06/28 10:33:30;;;;;;;;;;;;;;;28.96;35.86;97283.38;5031303;28;19971;-72
2021/06/28 10:36:04;;;;;;;;;;;;;;;28.94;36.11;97288.31;5031632;28;20332;-73
2021/06/28 10:38:42;;;;;;;;;;;;;;;29.18;35.46;97282.72;5031288;28;20343;-71
2021/06/28 10:41:07;;;;;;;;;;;;;;;29.27;35.49;97283.22;5046253;28;19964;-72
2021/06/28 10:43:33;;;;;;;;;;;;;;;29.38;35.86;97282.34;5036445;28;20332;-72
2021/06/28 10:46:00;;;;;;;;;;;;;;;29.47;36.01;97278.09;5035321;28;20023;-72
2021/06/28 10:48:27;;;;;;;;;;;;;;;29.51;35.08;97282.03;5035673;28;20300;-73
2021/06/28 10:51:03;;;;;;;;;;;;;;;29.52;35.78;97282.91;5068088;28;20004;-73
2021/06/28 10:53:28;;;;;;;;;;;;;;;29.36;35.20;97277.03;5035026;28;19975;-73
2021/06/28 10:55:54;;;;;;;;;;;;;;;29.55;36.14;97285.16;5038912;28;19921;-73
2021/06/28 10:58:23;;;;;;;;;;;;;;;29.43;34.85;97271.34;5033540;28;20361;-73
2021/06/28 11:00:49;;;;;;;;;;;;;;;29.47;35.13;97275.31;5034596;28;19925;-72
2021/06/28 11:03:23;;;;;;;;;;;;;;;29.61;35.14;97263.94;5061203;28;19917;-72
2021/06/28 11:06:07;;;;;;;;;;;;;;;29.55;35.36;97261.06;5032201;28;19921;-70
2021/06/28 11:08:32;;;;;;;;;;;;;;;29.37;34.99;97264.88;5032345;28;19944;-71
2021/06/28 11:10:58;;;;;;;;;;;;;;;29.23;35.73;97267.03;5029227;28;20035;-72
2021/06/28 11:13:24;;;;;;;;;;;;;;;29.15;36.49;97258.31;5031610;28;19917;-72
2021/06/28 11:15:50;;;;;;;;;;;;;;;29.14;37.21;97260.22;5033980;28;19946;-72
2021/06/28 11:18:27;;;;;;;;;;;;;;;29.14;36.41;97264.91;5065062;28;19920;-72
2021/06/28 11:20:53;;;;;;;;;;;;;;;29.18;37.52;97263.34;5066509;28;19913;-73
2021/06/28 11:23:19;;;;;;;;;;;;;;;29.49;36.78;97267.63;5033280;28;19932;-72
2021/06/28 11:25:45;;;;;;;;;;;;;;;29.59;35.36;97249.50;5029697;28;19912;-72
2021/06/28 11:28:12;;;;;;;;;;;;;;;29.58;35.04;97259.72;5032256;28;20292;-72
2021/06/28 11:30:44;;;;;;;;;;;;;;;29.71;34.35;97262.19;5033315;28;19920;-73
2021/06/28 11:33:10;;;;;;;;;;;;;;;29.59;34.64;97253.09;5031751;28;19916;-72
2021/06/28 11:35:36;;;;;;;;;;;;;;;29.78;35.57;97247.34;5033366;28;19913;-73
2021/06/28 11:38:11;;;;;;;;;;;;;;;29.98;35.61;97252.44;5033108;28;20004;-73
2021/06/28 11:40:40;;;;;;;;;;;;;;;30.10;34.68;97252.38;5031876;28;19956;-73
2021/06/28 11:43:06;;;;;;;;;;;;;;;30.25;35.85;97241.50;5032524;28;19975;-73
2021/06/28 11:45:50;;;;;;;;;;;;;;;30.01;34.43;97246.38;5033373;28;19955;-73
2021/06/28 11:48:34;;;;;;;;;;;;;;;30.22;34.20;97239.25;5033225;28;19999;-73
2021/06/28 11:51:00;;;;;;;;;;;;;;;30.03;34.59;97236.72;5033397;28;20292;-73
2021/06/28 11:53:25;;;;;;;;;;;;;;;30.15;35.42;97233.06;5065780;28;19921;-73
2021/06/28 11:55:51;;;;;;;;;;;;;;;30.21;34.91;97235.66;5033767;28;20335;-73
2021/06/28 11:58:16;;;;;;;;;;;;;;;30.19;35.66;97242.53;5033801;28;19916;-73
2021/06/28 12:00:42;;;;;;;;;;;;;;;30.40;35.64;97232.63;5065422;28;19935;-73
2021/06/28 12:03:16;;;;;;;;;;;;;;;30.57;35.65;97231.78;5033538;28;19913;-73
2021/06/28 12:05:42;;;;;;;;;;;;;;;30.66;34.30;97239.41;5033759;28;19917;-73
2021/06/28 12:08:08;;;;;;;;;;;;;;;30.34;33.42;97223.34;5065472;28;19919;-73
2021/06/28 12:10:33;;;;;;;;;;;;;;;30.49;34.79;97230.25;5065441;28;19917;-73
2021/06/28 12:12:59;;;;;;;;;;;;;;;30.69;34.84;97229.72;5033430;28;20330;-73
2021/06/28 12:15:24;;;;;;;;;;;;;;;30.88;34.49;97239.44;5065357;28;20349;-73
2021/06/28 12:17:50;;;;;;;;;;;;;;;30.86;33.28;97235.22;5033255;28;20333;-73
2021/06/28 12:20:18;;;;;;;;;;;;;;;30.64;34.45;97233.28;5033202;28;19913;-73
2021/06/28 12:22:44;;;;;;;;;;;;;;;30.89;33.25;97231.94;5033125;28;20369;-73
2021/06/28 12:25:13;;;;;;;;;;;;;;;31.14;33.09;97223.13;5033098;28;20000;-73
2021/06/28 12:27:39;;;;;;;;;;;;;;;31.40;32.47;97228.97;5033132;28;19935;-73
2021/06/28 12:30:08;;;;;;;;;;;;;;;31.21;33.16;97229.34;5065235;28;20003;-73
2021/06/28 12:32:34;;;;;;;;;;;;;;;30.87;33.89;97223.88;5064942;28;19913;-73
2021/06/28 12:35:00;;;;;;;;;;;;;;;30.61;33.48;97222.66;5065081;28;19917;-74
2021/06/28 12:37:27;;;;;;;;;;;;;;;30.52;33.44;97222.28;5064952;28;19920;-73
2021/06/28 12:39:53;;;;;;;;;;;;;;;30.49;33.21;97224.72;5033268;28;19920;-74
2021/06/28 12:42:19;;;;;;;;;;;;;;;30.72;33.26;97227.28;5032771;28;19919;-73
2021/06/28 12:44:45;;;;;;;;;;;;;;;31.04;33.33;97223.00;5032777;28;19920;-74